Hauptseite
METAR-TAF:

METAR-TAF

Flughäfen :

Tahiti, Französisch-Polynesien

Flughafen Tahiti

Breite: 17-33S, Länge: 149-37W, Höhe: 2 m

Beobachtung

Neuester Wetterbericht von vor 23 Minuten, um 09:30 UTC
Wind 7 kt aus Ost/Nordost
Temperatur 26°C
Luftfeuchtigkeit 74%
Luftdruck 1012 hPa
Sichtweite 10 km oder mehr
Leicht bewölkt in der Höhe von 1800 ft
Aufgelockert bewölkt in der Höhe von 5000 ft

METAR: NTAA 210930Z 07007KT 9999 FEW018 SCT050 26/21 Q1012 TEMPO 04015G25KT 3000 SHRA FEW013 SCT018 BKN040

Zeit: 23:53 (09:53 UTC)

Prognose

Neuester Wetterbericht von vor 4 Stunden und 53 Minuten, um 05:00 UTC
Gültige Prognose vom 21 um 06 UTC bis 22 um 12 UTC
Wind 5 kt aus unterschiedlichen Richtungen
Sichtweite 10 km oder mehr
Leicht bewölkt in der Höhe von 2300 ft
Aufgelockert bewölkt in der Höhe von 5000 ft

TAF: NTAA 210500Z 2106/2212 VRB05KT 9999 FEW023 SCT050

Wetterbeobachtungen und Prognosen von mehr als 4000 Flughäfen (METAR und TAF Bericht).

Die verfügbaren Stationen werden durch gelbe und rote Markierungen auf der Karte dargestellt.

Führen Sie die Maus auf sie, um den Namen der Station zu sehen.

Darauf klicken, um die Beobachtung von Wetterbeobachtungen und Prognosen zu sehen.

Um die Karte zu ändern : klicken Sie auf den grünen Tasten mit einem schwarzen Kreuz Zum Vergrößern, auf den grünen Button mit einem Gedankenstrich zu verkleinern, oder auf die grünen Pfeile für benachbarte Karten.


METAR-TAF: